Time;durP1;ratioP1;P1;durP2;ratioP2;P2;SDS_P1;SDS_P2;PMS_P1;PMS_P2;Temp;Humidity;BMP_temperature;BMP_pressure;BME280_temperature;BME280_humidity;BME280_pressure;Samples;Min_cycle;Max_cycle;Signal;HPM_P1;HPM_P2
2022/07/31 00:00:35;;;;;;;4.00;3.70;;;17.20;83.10;;;;;;5085441;28;20469;-62
2022/07/31 00:03:01;;;;;;;3.97;3.40;;;17.20;84.50;;;;;;5081951;28;20178;-62
2022/07/31 00:05:26;;;;;;;5.73;3.50;;;17.10;85.70;;;;;;5090701;28;20166;-63
2022/07/31 00:07:53;;;;;;;8.57;4.20;;;17.00;87.60;;;;;;5086129;28;20206;-63
2022/07/31 00:10:19;;;;;;;6.23;4.07;;;16.90;88.10;;;;;;5074209;28;20189;-63
2022/07/31 00:12:44;;;;;;;7.00;4.77;;;16.90;89.30;;;;;;5090898;28;20411;-62
2022/07/31 00:15:11;;;;;;;6.57;4.30;;;16.80;90.30;;;;;;5081715;28;20221;-61
2022/07/31 00:17:37;;;;;;;7.00;4.70;;;16.80;90.70;;;;;;5086906;28;20171;-62
2022/07/31 00:20:04;;;;;;;4.20;3.90;;;16.80;90.90;;;;;;5072011;28;20510;-63
2022/07/31 00:22:29;;;;;;;4.43;4.03;;;16.70;91.10;;;;;;5087751;28;21019;-62
2022/07/31 00:24:55;;;;;;;4.27;3.87;;;16.70;92.30;;;;;;5085360;28;20534;-63
2022/07/31 00:27:22;;;;;;;4.30;3.90;;;16.70;92.90;;;;;;5090742;28;20521;-62
2022/07/31 00:29:48;;;;;;;7.10;3.90;;;16.60;93.40;;;;;;5084239;28;20641;-62
2022/07/31 00:32:13;;;;;;;7.63;4.00;;;16.60;93.70;;;;;;5078019;28;20435;-62
2022/07/31 00:34:41;;;;;;;8.80;4.07;;;16.50;94.20;;;;;;5089173;28;20698;-62
2022/07/31 00:37:07;;;;;;;4.70;4.30;;;16.50;94.50;;;;;;5083121;28;20210;-62
2022/07/31 00:39:32;;;;;;;6.83;3.90;;;16.40;94.00;;;;;;5070517;28;20460;-62
2022/07/31 00:41:58;;;;;;;4.67;4.27;;;16.40;93.80;;;;;;5075621;28;20842;-62
2022/07/31 00:44:24;;;;;;;4.33;3.93;;;16.40;94.10;;;;;;5085851;28;20169;-62
2022/07/31 00:46:50;;;;;;;6.07;4.33;;;16.40;94.80;;;;;;5085352;28;20201;-63
2022/07/31 00:49:16;;;;;;;5.23;4.67;;;16.40;94.80;;;;;;5090270;28;20412;-63
2022/07/31 00:51:41;;;;;;;6.90;4.63;;;16.40;95.30;;;;;;5085133;28;20170;-64
2022/07/31 00:54:08;;;;;;;5.70;4.53;;;16.40;95.30;;;;;;5083076;28;20549;-64
2022/07/31 00:56:34;;;;;;;5.33;4.30;;;16.40;95.00;;;;;;5087151;28;20174;-64
2022/07/31 00:59:00;;;;;;;5.27;4.43;;;16.40;94.90;;;;;;5085102;28;20483;-63
2022/07/31 01:01:26;;;;;;;7.10;5.00;;;16.40;94.80;;;;;;5081579;28;20475;-64
2022/07/31 01:03:52;;;;;;;5.97;4.37;;;16.50;94.70;;;;;;5087454;28;20501;-61
2022/07/31 01:06:18;;;;;;;11.70;4.20;;;16.50;94.30;;;;;;5089571;28;20412;-64
2022/07/31 01:08:44;;;;;;;4.90;4.50;;;16.50;94.40;;;;;;5080642;28;20462;-64
2022/07/31 01:11:16;;;;;;;13.60;5.03;;;16.50;94.20;;;;;;5079075;28;20455;-64
2022/07/31 01:13:48;;;;;;;4.97;4.07;;;16.50;94.20;;;;;;5084935;28;20182;-64
2022/07/31 01:16:14;;;;;;;5.20;4.17;;;16.50;94.20;;;;;;5086523;28;20519;-63
2022/07/31 01:18:41;;;;;;;4.33;3.93;;;16.50;94.80;;;;;;5084605;28;20423;-64
2022/07/31 01:21:10;;;;;;;5.80;4.13;;;16.50;94.70;;;;;;5082944;28;20494;-63
2022/07/31 01:23:54;;;;;;;5.43;3.93;;;16.60;94.20;;;;;;5081902;28;20431;-63
2022/07/31 01:27:02;;;;;;;4.70;4.13;;;16.60;93.50;;;;;;5085331;28;20468;-64
2022/07/31 01:29:33;;;;;;;6.53;4.27;;;16.60;93.20;;;;;;5077161;28;20424;-63
2022/07/31 01:32:05;;;;;;;10.20;4.80;;;16.70;93.40;;;;;;5080257;28;20435;-63
2022/07/31 01:34:39;;;;;;;5.93;4.57;;;16.70;93.30;;;;;;5086855;28;20423;-63
2022/07/31 01:37:41;;;;;;;5.33;4.83;;;16.70;93.20;;;;;;5085496;28;20502;-64
2022/07/31 01:40:14;;;;;;;5.40;4.33;;;16.60;93.20;;;;;;5076120;28;20451;-63
2022/07/31 01:42:49;;;;;;;6.63;5.37;;;16.60;93.20;;;;;;5086615;28;20457;-64
2022/07/31 01:45:17;;;;;;;6.10;4.53;;;16.60;93.90;;;;;;5078768;28;20800;-63
2022/07/31 01:47:44;;;;;;;4.90;4.50;;;16.60;94.40;;;;;;5087185;28;20419;-63
2022/07/31 01:50:10;;;;;;;7.27;4.40;;;16.60;95.30;;;;;;5077410;28;20464;-63
2022/07/31 01:52:38;;;;;;;5.70;4.30;;;16.60;96.20;;;;;;5083832;28;20967;-63
2022/07/31 01:55:05;;;;;;;5.00;4.50;;;16.60;96.30;;;;;;5084561;28;20420;-62
2022/07/31 01:57:33;;;;;;;4.83;4.43;;;16.60;95.80;;;;;;5093339;28;20407;-63
2022/07/31 02:00:02;;;;;;;4.90;4.40;;;16.50;95.50;;;;;;5084446;28;20997;-63
2022/07/31 02:02:29;;;;;;;5.17;4.43;;;16.50;95.30;;;;;;5086100;28;20454;-63
2022/07/31 02:04:56;;;;;;;5.43;4.23;;;16.50;95.70;;;;;;5088413;28;20424;-63
2022/07/31 02:07:22;;;;;;;4.60;4.20;;;16.40;95.90;;;;;;5081874;28;20421;-63
2022/07/31 02:09:49;;;;;;;5.60;4.40;;;16.40;96.50;;;;;;5077925;28;20448;-63
2022/07/31 02:12:16;;;;;;;6.50;4.57;;;16.40;96.60;;;;;;5087965;28;20427;-63
2022/07/31 02:14:43;;;;;;;6.83;4.47;;;16.30;97.00;;;;;;5083260;28;20427;-62
2022/07/31 02:17:10;;;;;;;7.03;4.40;;;16.30;97.70;;;;;;5086558;28;20427;-63
2022/07/31 02:19:39;;;;;;;6.20;4.07;;;16.20;98.40;;;;;;5088737;28;20931;-63
2022/07/31 02:22:05;;;;;;;7.40;4.20;;;16.20;98.70;;;;;;5080597;28;20431;-63
2022/07/31 02:24:31;;;;;;;8.13;5.17;;;16.20;99.00;;;;;;5090356;28;20922;-63
2022/07/31 02:26:58;;;;;;;8.23;4.53;;;16.20;98.30;;;;;;5092011;28;20951;-63
2022/07/31 02:29:26;;;;;;;6.83;4.70;;;16.20;98.30;;;;;;5085707;28;20427;-63
2022/07/31 02:31:54;;;;;;;9.30;5.17;;;16.20;98.40;;;;;;5087543;28;20560;-64
2022/07/31 02:34:22;;;;;;;8.00;5.03;;;16.20;98.40;;;;;;5092427;28;20407;-64
2022/07/31 02:36:49;;;;;;;5.13;4.70;;;16.10;98.80;;;;;;5090583;28;20416;-64
2022/07/31 02:39:16;;;;;;;6.13;5.00;;;16.10;99.20;;;;;;5090060;28;20419;-64
2022/07/31 02:41:43;;;;;;;7.00;4.70;;;16.10;99.40;;;;;;5078399;28;20462;-64
2022/07/31 02:44:11;;;;;;;5.77;5.17;;;16.10;99.10;;;;;;5084644;28;20511;-63
2022/07/31 02:46:37;;;;;;;5.40;4.90;;;16.10;98.90;;;;;;5077701;28;20432;-63
2022/07/31 02:49:04;;;;;;;5.13;4.73;;;16.10;98.50;;;;;;5092284;28;20970;-63
2022/07/31 02:51:30;;;;;;;5.00;4.50;;;16.10;98.40;;;;;;5082520;28;20992;-63
2022/07/31 02:53:57;;;;;;;5.10;4.70;;;16.10;98.50;;;;;;5081676;28;20994;-63
2022/07/31 02:56:23;;;;;;;4.93;4.43;;;16.10;98.90;;;;;;5086678;28;20458;-63
2022/07/31 02:58:50;;;;;;;5.70;4.70;;;16.00;98.10;;;;;;5090521;28;20435;-63
2022/07/31 03:01:16;;;;;;;5.13;4.50;;;16.00;98.20;;;;;;5088038;28;20984;-63
2022/07/31 03:03:41;;;;;;;5.77;5.27;;;16.00;98.40;;;;;;5088207;28;20473;-64
2022/07/31 03:06:07;;;;;;;5.23;4.70;;;16.00;98.30;;;;;;5071685;28;20404;-64
2022/07/31 03:08:34;;;;;;;10.60;4.90;;;15.90;98.50;;;;;;5079866;28;20261;-63
2022/07/31 03:11:00;;;;;;;7.50;4.97;;;15.90;98.80;;;;;;5083548;28;20440;-64
2022/07/31 03:13:29;;;;;;;6.67;4.37;;;15.90;99.10;;;;;;5089469;28;20426;-64
2022/07/31 03:15:55;;;;;;;5.67;4.90;;;15.80;99.10;;;;;;5088470;28;20519;-63
2022/07/31 03:18:22;;;;;;;5.60;4.57;;;15.80;99.50;;;;;;5089475;28;20428;-63
2022/07/31 03:20:52;;;;;;;4.63;4.23;;;15.80;99.80;;;;;;5090583;28;20463;-64
2022/07/31 03:23:21;;;;;;;4.93;4.13;;;15.80;99.90;;;;;;5076169;28;20945;-64
2022/07/31 03:25:50;;;;;;;5.97;4.83;;;15.80;99.90;;;;;;5074770;28;20428;-64
2022/07/31 03:28:20;;;;;;;7.13;4.80;;;15.70;99.90;;;;;;5086561;28;20476;-64
2022/07/31 03:30:49;;;;;;;5.63;5.13;;;15.70;99.90;;;;;;5087536;28;20452;-64
2022/07/31 03:33:14;;;;;;;9.23;5.00;;;15.60;99.90;;;;;;5080788;28;20964;-64
2022/07/31 03:35:40;;;;;;;5.00;4.17;;;15.60;99.90;;;;;;5079526;28;20443;-64
2022/07/31 03:38:06;;;;;;;5.20;4.70;;;15.50;99.90;;;;;;5091587;28;20185;-64
2022/07/31 03:40:32;;;;;;;7.27;4.30;;;15.50;99.90;;;;;;5081752;28;20210;-64
2022/07/31 03:42:59;;;;;;;5.33;4.83;;;15.50;99.90;;;;;;5084841;28;20181;-64
2022/07/31 03:45:26;;;;;;;5.93;4.70;;;15.40;99.90;;;;;;5079412;28;20217;-63
2022/07/31 03:47:52;;;;;;;9.33;5.00;;;15.40;99.90;;;;;;5077523;28;20427;-63
2022/07/31 03:50:19;;;;;;;5.03;4.63;;;15.40;99.90;;;;;;5085977;28;20446;-63
2022/07/31 03:52:46;;;;;;;6.43;5.23;;;15.40;99.90;;;;;;5089719;28;20550;-64
2022/07/31 03:55:13;;;;;;;8.63;5.10;;;15.40;99.90;;;;;;5073552;28;20435;-64
2022/07/31 03:57:39;;;;;;;15.63;5.00;;;15.40;99.90;;;;;;5088466;28;20588;-63
2022/07/31 04:00:07;;;;;;;5.70;5.10;;;15.40;99.90;;;;;;5091328;28;20448;-63
2022/07/31 04:02:32;;;;;;;8.70;5.40;;;15.40;99.90;;;;;;5084575;28;20446;-63
2022/07/31 04:04:58;;;;;;;8.00;4.53;;;15.40;99.90;;;;;;5078033;28;20516;-63
2022/07/31 04:07:24;;;;;;;7.27;5.67;;;15.40;99.90;;;;;;5086507;28;20162;-63
2022/07/31 04:09:50;;;;;;;5.00;4.50;;;15.50;99.90;;;;;;5084779;28;20452;-63
2022/07/31 04:12:16;;;;;;;7.73;5.37;;;15.50;99.90;;;;;;5079642;28;20182;-63
2022/07/31 04:14:42;;;;;;;7.73;5.03;;;15.50;99.90;;;;;;5087424;28;20831;-64
2022/07/31 04:17:08;;;;;;;5.30;4.53;;;15.60;99.90;;;;;;5086589;28;20295;-64
2022/07/31 04:19:33;;;;;;;6.17;4.67;;;15.60;99.90;;;;;;5085357;28;20239;-63
2022/07/31 04:22:00;;;;;;;6.47;4.50;;;15.60;99.90;;;;;;5079172;28;21100;-63
2022/07/31 04:24:26;;;;;;;7.00;4.77;;;15.60;99.90;;;;;;5080130;28;20178;-63
2022/07/31 04:26:54;;;;;;;5.27;4.77;;;15.60;99.90;;;;;;5090930;28;20400;-63
2022/07/31 04:29:20;;;;;;;10.97;5.80;;;15.60;99.90;;;;;;5090446;28;20408;-64
2022/07/31 04:31:46;;;;;;;8.27;4.90;;;15.70;99.90;;;;;;5079000;28;20442;-64
2022/07/31 04:34:11;;;;;;;5.30;4.90;;;15.70;99.90;;;;;;5080555;28;20181;-63
2022/07/31 04:36:38;;;;;;;6.70;5.10;;;15.60;99.90;;;;;;5088806;28;20177;-63
2022/07/31 04:39:04;;;;;;;5.33;4.87;;;15.60;99.90;;;;;;5079717;28;20760;-63
2022/07/31 04:41:30;;;;;;;5.20;4.70;;;15.60;99.90;;;;;;5080037;28;21067;-64
2022/07/31 04:43:56;;;;;;;5.27;4.87;;;15.50;99.90;;;;;;5077605;28;20428;-64
2022/07/31 04:46:23;;;;;;;4.90;4.50;;;15.50;99.90;;;;;;5088111;28;20653;-62
2022/07/31 04:48:49;;;;;;;9.20;5.80;;;15.50;99.90;;;;;;5087148;28;20462;-63
2022/07/31 04:51:21;;;;;;;6.30;5.43;;;15.50;99.90;;;;;;5086047;28;20455;-64
2022/07/31 04:53:48;;;;;;;6.23;4.80;;;15.50;99.90;;;;;;5084975;28;20780;-63
2022/07/31 04:56:32;;;;;;;10.13;5.00;;;15.50;99.90;;;;;;5080138;28;20434;-63
2022/07/31 04:59:00;;;;;;;7.60;5.43;;;15.50;99.90;;;;;;5080781;28;20956;-63
2022/07/31 05:01:26;;;;;;;8.27;5.60;;;15.40;99.90;;;;;;5086542;28;20470;-64
2022/07/31 05:03:52;;;;;;;5.27;4.77;;;15.50;99.90;;;;;;5086494;28;20427;-64
2022/07/31 05:06:18;;;;;;;8.30;5.47;;;15.50;99.90;;;;;;5087294;28;20300;-63
2022/07/31 05:08:44;;;;;;;5.83;5.23;;;15.50;99.90;;;;;;5082953;28;20439;-63
2022/07/31 05:11:30;;;;;;;6.70;5.40;;;15.50;99.90;;;;;;5082706;28;20202;-64
2022/07/31 05:13:57;;;;;;;4.83;4.43;;;15.50;99.90;;;;;;5081173;28;20186;-64
2022/07/31 05:16:24;;;;;;;4.60;4.20;;;15.60;99.90;;;;;;5072380;28;20467;-63
2022/07/31 05:18:53;;;;;;;6.77;5.33;;;15.60;99.90;;;;;;5086629;28;20428;-64
2022/07/31 05:21:19;;;;;;;7.03;5.57;;;15.60;99.90;;;;;;5085779;28;20463;-64
2022/07/31 05:23:47;;;;;;;8.43;5.90;;;15.60;99.90;;;;;;5081459;28;20431;-63
2022/07/31 05:26:13;;;;;;;6.07;4.77;;;15.60;99.90;;;;;;5087092;28;20169;-64
2022/07/31 05:28:40;;;;;;;7.43;4.90;;;15.60;99.90;;;;;;5084292;28;20430;-64
2022/07/31 05:31:07;;;;;;;5.37;4.87;;;15.60;99.90;;;;;;5085633;28;20463;-64
2022/07/31 05:33:33;;;;;;;5.40;4.80;;;15.60;99.90;;;;;;5084395;28;20439;-64
2022/07/31 05:36:00;;;;;;;5.40;4.90;;;15.60;99.90;;;;;;5081763;28;20786;-64
2022/07/31 05:38:26;;;;;;;5.90;5.33;;;15.70;99.90;;;;;;5086433;28;20436;-64
2022/07/31 05:40:52;;;;;;;5.93;5.30;;;15.70;99.90;;;;;;5079795;28;20463;-64
2022/07/31 05:43:18;;;;;;;7.73;5.30;;;15.70;99.90;;;;;;5082262;28;20431;-64
2022/07/31 05:45:45;;;;;;;7.57;4.90;;;15.70;99.90;;;;;;5079365;28;20411;-64
2022/07/31 05:48:15;;;;;;;6.67;5.03;;;15.70;99.90;;;;;;5078504;28;20217;-64
2022/07/31 05:50:42;;;;;;;5.50;5.00;;;15.80;99.90;;;;;;5076916;28;20462;-63
2022/07/31 05:53:11;;;;;;;5.70;4.93;;;15.90;99.90;;;;;;5080125;28;20522;-64
2022/07/31 05:55:38;;;;;;;7.87;5.43;;;16.00;99.90;;;;;;5080219;28;20511;-63
2022/07/31 05:58:04;;;;;;;6.27;5.07;;;16.10;99.90;;;;;;5084201;28;20436;-64
2022/07/31 06:00:30;;;;;;;8.03;5.53;;;16.20;99.90;;;;;;5083175;28;20494;-63
2022/07/31 06:02:55;;;;;;;5.57;5.07;;;16.20;99.90;;;;;;5083147;28;20770;-63
2022/07/31 06:05:21;;;;;;;8.23;5.63;;;16.30;99.90;;;;;;5077560;28;20257;-64
2022/07/31 06:07:49;;;;;;;6.03;5.37;;;16.30;99.90;;;;;;5085854;28;20674;-63
2022/07/31 06:10:15;;;;;;;5.83;5.03;;;16.30;99.90;;;;;;5083751;28;20473;-64
2022/07/31 06:12:40;;;;;;;9.33;5.53;;;16.40;99.90;;;;;;5080321;28;20427;-64
2022/07/31 06:15:06;;;;;;;5.77;5.17;;;16.40;99.90;;;;;;5071587;28;20519;-63
2022/07/31 06:17:32;;;;;;;6.90;5.30;;;16.40;99.90;;;;;;5084373;28;20182;-63
2022/07/31 06:19:58;;;;;;;8.00;5.60;;;16.40;99.90;;;;;;5086553;28;20520;-63
2022/07/31 06:22:23;;;;;;;5.53;4.77;;;16.40;99.90;;;;;;5079147;28;20332;-64
2022/07/31 06:24:49;;;;;;;6.00;5.40;;;16.60;99.90;;;;;;5081392;28;20170;-54
2022/07/31 06:27:14;;;;;;;5.90;5.30;;;16.70;99.70;;;;;;5089226;28;20168;-54
2022/07/31 06:29:40;;;;;;;7.83;5.20;;;17.00;97.70;;;;;;5083279;28;20202;-54
2022/07/31 06:32:07;;;;;;;6.37;5.00;;;17.30;95.40;;;;;;5068039;28;20173;-54
2022/07/31 06:34:33;;;;;;;6.23;4.93;;;17.50;94.60;;;;;;5077487;28;20231;-54
2022/07/31 06:36:59;;;;;;;5.80;5.20;;;17.50;93.60;;;;;;5070894;28;20419;-60
2022/07/31 06:39:24;;;;;;;6.60;5.87;;;17.60;92.10;;;;;;5067158;28;20182;-61
2022/07/31 06:41:50;;;;;;;9.70;5.60;;;17.70;91.70;;;;;;5070131;28;20263;-61
2022/07/31 06:44:18;;;;;;;6.00;5.00;;;17.70;91.30;;;;;;5080049;28;20572;-60
2022/07/31 06:46:48;;;;;;;5.63;5.07;;;17.80;91.30;;;;;;5078158;28;20275;-60
2022/07/31 06:49:14;;;;;;;6.00;5.13;;;17.80;90.50;;;;;;5072944;28;20421;-60
2022/07/31 06:51:40;;;;;;;7.00;5.13;;;17.90;90.50;;;;;;5084907;28;20494;-60
2022/07/31 06:54:07;;;;;;;5.10;4.60;;;18.00;90.00;;;;;;5080536;28;20447;-60
2022/07/31 06:56:34;;;;;;;4.50;4.10;;;18.00;90.30;;;;;;5077140;28;20216;-60
2022/07/31 06:59:00;;;;;;;5.40;4.33;;;18.10;88.60;;;;;;5085712;28;20434;-60
2022/07/31 07:01:26;;;;;;;5.17;4.03;;;18.20;87.70;;;;;;5084778;28;20467;-61
2022/07/31 07:03:52;;;;;;;4.20;3.83;;;18.30;86.10;;;;;;5079129;28;20797;-60
2022/07/31 07:06:18;;;;;;;6.60;4.43;;;18.40;85.30;;;;;;5068628;28;20429;-60
2022/07/31 07:08:43;;;;;;;10.80;4.20;;;18.50;83.60;;;;;;5070433;28;20182;-61
2022/07/31 07:11:09;;;;;;;4.47;4.07;;;18.60;83.60;;;;;;5074545;28;20201;-61
2022/07/31 07:13:35;;;;;;;5.67;4.30;;;18.80;84.30;;;;;;5077140;28;20239;-61
2022/07/31 07:16:00;;;;;;;4.83;4.43;;;19.00;84.10;;;;;;5082068;28;20186;-61
2022/07/31 07:18:26;;;;;;;5.83;4.27;;;19.10;82.30;;;;;;5070321;28;20642;-61
2022/07/31 07:20:52;;;;;;;4.40;4.00;;;19.30;80.10;;;;;;5081358;28;20228;-61
2022/07/31 07:23:19;;;;;;;4.97;3.63;;;19.50;78.10;;;;;;5079151;28;20201;-61
2022/07/31 07:25:45;;;;;;;10.37;4.10;;;19.70;77.10;;;;;;5082410;28;20461;-61
2022/07/31 07:28:12;;;;;;;5.07;4.10;;;19.90;74.70;;;;;;5072209;28;20440;-61
2022/07/31 07:30:38;;;;;;;4.50;4.10;;;20.00;70.80;;;;;;5080141;28;20680;-61
2022/07/31 07:33:04;;;;;;;4.17;3.80;;;20.00;69.30;;;;;;5072265;28;20468;-59
2022/07/31 07:35:31;;;;;;;6.00;3.70;;;20.20;69.00;;;;;;5071811;28;20526;-60
2022/07/31 07:37:56;;;;;;;4.47;3.97;;;20.40;70.00;;;;;;5080612;28;20174;-60
2022/07/31 07:40:23;;;;;;;3.73;3.13;;;20.60;68.20;;;;;;5071574;28;21983;-60
2022/07/31 07:42:48;;;;;;;3.53;3.00;;;20.80;68.10;;;;;;5073889;28;20225;-61
2022/07/31 07:45:14;;;;;;;3.43;3.23;;;21.00;66.10;;;;;;5070393;28;20462;-60
2022/07/31 07:47:40;;;;;;;6.30;3.50;;;21.20;64.60;;;;;;5085134;28;20181;-60
2022/07/31 07:50:07;;;;;;;3.50;3.10;;;21.40;62.20;;;;;;5070699;28;20206;-60
2022/07/31 07:52:34;;;;;;;7.70;3.33;;;21.50;60.70;;;;;;5072071;28;20192;-59
2022/07/31 07:54:59;;;;;;;3.77;3.10;;;21.60;59.60;;;;;;5072478;28;21013;-59
2022/07/31 07:57:25;;;;;;;3.80;3.30;;;21.70;58.90;;;;;;5071377;28;20437;-59
2022/07/31 07:59:51;;;;;;;8.20;3.40;;;21.90;58.40;;;;;;5068535;28;20910;-58
2022/07/31 08:02:17;;;;;;;5.60;3.20;;;22.00;57.80;;;;;;5070123;28;20558;-59
2022/07/31 08:04:43;;;;;;;3.93;2.70;;;22.20;56.30;;;;;;5073795;28;20174;-59
2022/07/31 08:07:08;;;;;;;4.77;3.10;;;22.30;56.30;;;;;;5069176;28;20312;-59
2022/07/31 08:09:35;;;;;;;3.73;3.20;;;22.40;55.70;;;;;;5071933;28;20228;-59
2022/07/31 08:12:01;;;;;;;6.40;2.23;;;22.60;53.10;;;;;;5074539;28;20189;-59
2022/07/31 08:14:27;;;;;;;3.10;2.47;;;22.70;51.10;;;;;;5074458;28;20830;-60
2022/07/31 08:16:54;;;;;;;3.67;2.43;;;22.80;50.20;;;;;;5068400;28;20435;-60
2022/07/31 08:19:20;;;;;;;2.67;2.30;;;22.80;49.70;;;;;;5067384;28;20256;-59
2022/07/31 08:21:45;;;;;;;3.40;2.40;;;23.00;49.80;;;;;;5075164;28;20466;-60
2022/07/31 08:24:11;;;;;;;3.23;2.23;;;23.10;49.70;;;;;;5070186;28;20185;-60
2022/07/31 08:29:22;;;;;;;4.50;2.17;;;23.20;47.70;;;;;;5071938;28;20920;-57
2022/07/31 08:31:48;;;;;;;3.40;2.13;;;23.30;47.90;;;;;;5067916;28;20860;-59
2022/07/31 08:34:14;;;;;;;3.03;2.07;;;23.40;47.70;;;;;;5069952;28;20520;-60
2022/07/31 08:36:40;;;;;;;5.40;2.47;;;23.50;47.80;;;;;;5066682;28;20189;-59
2022/07/31 08:39:06;;;;;;;5.00;2.20;;;23.60;46.50;;;;;;5072487;28;20205;-59
2022/07/31 08:41:32;;;;;;;2.83;2.20;;;23.70;46.20;;;;;;5066298;28;20452;-60
2022/07/31 08:43:58;;;;;;;4.33;2.43;;;23.70;45.10;;;;;;5072430;28;20436;-59
2022/07/31 08:46:25;;;;;;;4.43;1.90;;;23.80;45.60;;;;;;5074607;28;20707;-59
2022/07/31 08:48:55;;;;;;;2.60;2.23;;;23.90;45.50;;;;;;5069221;28;20443;-59
2022/07/31 08:51:23;;;;;;;4.10;2.00;;;24.00;45.20;;;;;;5063502;28;20506;-59
2022/07/31 08:53:52;;;;;;;2.17;1.80;;;24.10;45.70;;;;;;5063965;28;20921;-59
2022/07/31 08:56:19;;;;;;;2.73;1.70;;;24.30;46.40;;;;;;5069397;28;20452;-59
2022/07/31 08:58:45;;;;;;;2.40;2.20;;;24.40;46.30;;;;;;5071795;28;20424;-60
2022/07/31 09:01:12;;;;;;;2.17;1.90;;;24.40;45.90;;;;;;5069039;28;20478;-60
2022/07/31 09:03:37;;;;;;;2.90;2.30;;;24.50;46.40;;;;;;5068722;28;20443;-61
2022/07/31 09:06:04;;;;;;;3.60;2.23;;;24.70;46.70;;;;;;5069813;28;20436;-60
2022/07/31 09:08:35;;;;;;;2.80;1.63;;;25.00;46.30;;;;;;5067681;28;20214;-60
2022/07/31 09:11:08;;;;;;;2.70;2.20;;;25.20;45.50;;;;;;5076120;28;20467;-60
2022/07/31 09:13:33;;;;;;;2.63;1.60;;;25.50;45.10;;;;;;5074028;28;20530;-60
2022/07/31 09:16:00;;;;;;;2.80;1.70;;;25.60;43.40;;;;;;5078793;28;20874;-60
2022/07/31 09:18:26;;;;;;;2.43;2.13;;;25.50;42.10;;;;;;5077161;28;21491;-61
2022/07/31 09:20:57;;;;;;;2.60;2.00;;;25.40;42.10;;;;;;5069708;28;21001;-61
2022/07/31 09:23:24;;;;;;;2.47;1.80;;;25.30;42.60;;;;;;5069725;28;20174;-61
2022/07/31 09:26:02;;;;;;;2.63;2.00;;;25.20;43.20;;;;;;5075070;28;20841;-61
2022/07/31 09:28:37;;;;;;;3.60;2.40;;;25.10;43.50;;;;;;5075334;28;20476;-60
2022/07/31 09:31:05;;;;;;;2.60;2.23;;;24.90;44.00;;;;;;5081692;28;20775;-60
2022/07/31 09:33:32;;;;;;;6.97;2.10;;;24.80;44.40;;;;;;5083955;28;20560;-61
2022/07/31 09:35:59;;;;;;;2.20;2.10;;;24.60;44.60;;;;;;5087088;28;20956;-61
2022/07/31 09:38:36;;;;;;;2.53;2.20;;;24.50;44.70;;;;;;5088902;28;20447;-61
2022/07/31 09:41:27;;;;;;;4.00;2.37;;;24.50;45.00;;;;;;5069900;28;20482;-60
2022/07/31 09:43:54;;;;;;;5.37;2.40;;;24.40;45.20;;;;;;5072818;28;20616;-60
2022/07/31 09:46:20;;;;;;;3.33;2.40;;;24.30;45.20;;;;;;5082608;28;20427;-61
2022/07/31 09:48:51;;;;;;;4.13;2.13;;;24.20;44.70;;;;;;5071060;28;20412;-61
2022/07/31 09:51:16;;;;;;;4.53;2.10;;;24.20;45.10;;;;;;5070791;28;20197;-61
2022/07/31 09:53:52;;;;;;;7.30;2.27;;;24.10;45.00;;;;;;5081474;28;20486;-61
2022/07/31 09:56:29;;;;;;;3.00;2.30;;;24.10;45.00;;;;;;5103545;28;20267;-60
2022/07/31 09:58:56;;;;;;;5.33;2.60;;;24.00;44.80;;;;;;5081652;28;20415;-61
2022/07/31 10:01:22;;;;;;;2.43;2.23;;;23.90;44.30;;;;;;5077032;28;20827;-60
2022/07/31 10:03:50;;;;;;;4.17;2.40;;;23.90;44.90;;;;;;5081083;28;20929;-60
2022/07/31 10:06:17;;;;;;;2.43;2.17;;;24.00;46.00;;;;;;5073446;28;20798;-60
2022/07/31 10:08:45;;;;;;;3.60;2.67;;;24.00;46.10;;;;;;5081932;28;20442;-60
2022/07/31 10:11:12;;;;;;;4.57;2.00;;;24.10;46.60;;;;;;5086840;28;20509;-60
2022/07/31 10:13:43;;;;;;;4.17;1.90;;;24.10;46.70;;;;;;5083797;28;20438;-59
2022/07/31 10:16:09;;;;;;;5.20;2.63;;;24.20;46.90;;;;;;5082761;28;20436;-60
2022/07/31 10:18:37;;;;;;;3.27;2.13;;;24.30;46.70;;;;;;5088401;28;20443;-60
2022/07/31 10:21:07;;;;;;;4.07;2.40;;;24.30;45.70;;;;;;5091301;28;20463;-60
2022/07/31 10:23:37;;;;;;;4.00;2.40;;;24.40;45.70;;;;;;5090465;28;20431;-60
2022/07/31 10:26:03;;;;;;;3.70;2.10;;;24.40;45.20;;;;;;5088626;28;20436;-61
2022/07/31 10:28:30;;;;;;;4.30;2.50;;;24.50;45.40;;;;;;5077636;28;20458;-60
2022/07/31 10:30:56;;;;;;;3.60;2.23;;;24.70;45.10;;;;;;5089969;28;20751;-60
2022/07/31 10:33:22;;;;;;;3.10;2.30;;;24.80;44.40;;;;;;5089393;28;20431;-60
2022/07/31 10:36:10;;;;;;;3.07;2.20;;;24.80;43.90;;;;;;5089144;28;20419;-60
2022/07/31 10:39:14;;;;;;;5.00;2.50;;;24.90;44.20;;;;;;5086222;28;20518;-60
2022/07/31 10:41:50;;;;;;;2.30;2.10;;;24.80;43.60;;;;;;5081632;28;20454;-60
2022/07/31 10:44:26;;;;;;;3.37;2.30;;;24.80;44.00;;;;;;5079981;28;20768;-61
2022/07/31 10:46:52;;;;;;;5.07;2.30;;;24.70;43.80;;;;;;5071710;28;20449;-60
2022/07/31 10:49:17;;;;;;;2.40;2.10;;;24.70;44.10;;;;;;5087665;28;20480;-60
2022/07/31 10:51:48;;;;;;;2.53;2.13;;;24.80;44.80;;;;;;5084285;28;20208;-60
2022/07/31 10:54:14;;;;;;;4.00;2.40;;;24.80;44.50;;;;;;5089564;28;20262;-60
2022/07/31 10:56:44;;;;;;;5.13;2.40;;;24.90;44.80;;;;;;5088254;28;20400;-60
2022/07/31 10:59:11;;;;;;;3.67;2.33;;;24.90;44.40;;;;;;5083048;28;20428;-59
2022/07/31 11:01:50;;;;;;;4.50;2.47;;;25.00;44.10;;;;;;5089391;28;20512;-60
2022/07/31 11:04:31;;;;;;;3.07;2.20;;;25.10;44.40;;;;;;5090840;28;20753;-60
2022/07/31 11:06:58;;;;;;;2.80;2.13;;;25.20;44.40;;;;;;5085006;28;20427;-60
2022/07/31 11:09:27;;;;;;;2.40;2.20;;;25.40;43.30;;;;;;5087132;28;20781;-60
2022/07/31 11:11:54;;;;;;;4.40;2.30;;;25.90;43.50;;;;;;5075051;28;20477;-60
2022/07/31 11:14:39;;;;;;;2.17;1.97;;;26.30;41.50;;;;;;5084528;28;20439;-60
2022/07/31 11:17:05;;;;;;;4.63;2.10;;;26.50;41.20;;;;;;5084348;28;20407;-60
2022/07/31 11:19:41;;;;;;;2.10;1.90;;;26.80;41.40;;;;;;5078338;28;20468;-60
2022/07/31 11:22:14;;;;;;;4.67;2.23;;;27.20;41.20;;;;;;5084582;28;20697;-60
2022/07/31 11:24:40;;;;;;;5.50;2.20;;;27.50;40.00;;;;;;5085011;28;20966;-62
2022/07/31 11:27:06;;;;;;;2.10;1.90;;;27.60;40.10;;;;;;5084703;28;20436;-62
2022/07/31 11:29:34;;;;;;;4.67;2.67;;;27.70;39.50;;;;;;5077801;28;20169;-62
2022/07/31 11:32:20;;;;;;;4.60;2.20;;;27.90;40.70;;;;;;5077933;28;20196;-61
2022/07/31 11:34:47;;;;;;;4.17;2.20;;;27.90;39.10;;;;;;5077019;28;20189;-61
2022/07/31 11:37:21;;;;;;;5.00;2.23;;;27.80;38.70;;;;;;5067907;28;20169;-60
2022/07/31 11:39:48;;;;;;;6.43;2.37;;;27.50;39.00;;;;;;5084393;28;20242;-60
2022/07/31 11:42:16;;;;;;;6.83;2.27;;;27.00;39.30;;;;;;5088269;28;20170;-60
2022/07/31 11:44:42;;;;;;;2.23;2.03;;;26.70;40.20;;;;;;5087346;28;20695;-61
2022/07/31 11:47:08;;;;;;;2.20;2.00;;;26.40;40.80;;;;;;5069228;28;20711;-61
2022/07/31 11:49:36;;;;;;;4.07;1.90;;;26.50;41.10;;;;;;5082233;28;20527;-61
2022/07/31 11:52:06;;;;;;;4.10;1.97;;;26.70;40.80;;;;;;5081455;28;20170;-62
2022/07/31 11:54:32;;;;;;;3.37;2.13;;;27.10;41.60;;;;;;5085862;28;20999;-60
2022/07/31 11:56:58;;;;;;;2.10;2.00;;;27.50;40.00;;;;;;5083267;28;20200;-60
2022/07/31 11:59:31;;;;;;;4.60;2.50;;;27.90;39.70;;;;;;5088400;28;20174;-60
2022/07/31 12:02:11;;;;;;;3.43;1.90;;;28.10;38.70;;;;;;5086807;28;20217;-59
2022/07/31 12:04:37;;;;;;;2.13;1.90;;;28.30;39.10;;;;;;5082532;28;20174;-61
2022/07/31 12:07:04;;;;;;;2.70;2.07;;;28.30;39.20;;;;;;5082979;28;20240;-62
2022/07/31 12:09:32;;;;;;;5.03;2.00;;;28.40;38.70;;;;;;5083072;28;20264;-61
2022/07/31 12:11:59;;;;;;;3.63;1.93;;;28.50;38.60;;;;;;5084563;28;20197;-62
2022/07/31 12:14:33;;;;;;;2.70;2.50;;;28.40;37.90;;;;;;5081594;28;20191;-62
2022/07/31 12:16:59;;;;;;;4.77;2.10;;;28.20;38.80;;;;;;5085277;28;20543;-62
2022/07/31 12:19:30;;;;;;;2.30;2.10;;;27.90;38.30;;;;;;5085732;28;20207;-62
2022/07/31 12:21:56;;;;;;;3.80;1.87;;;27.70;39.00;;;;;;5089492;28;20194;-61
2022/07/31 12:24:23;;;;;;;3.60;2.20;;;27.60;39.40;;;;;;5088056;28;20192;-62
2022/07/31 12:26:54;;;;;;;2.00;1.63;;;27.60;39.20;;;;;;5073724;28;20274;-62
2022/07/31 12:29:37;;;;;;;4.20;2.00;;;27.60;38.30;;;;;;5088420;28;20243;-62
2022/07/31 12:32:05;;;;;;;2.10;2.00;;;27.50;38.20;;;;;;5088146;28;20181;-61
2022/07/31 12:34:34;;;;;;;3.03;2.33;;;27.50;38.90;;;;;;5070063;28;20193;-62
2022/07/31 12:37:03;;;;;;;2.73;2.37;;;27.40;38.70;;;;;;5086384;28;20181;-60
2022/07/31 12:39:30;;;;;;;2.07;1.90;;;27.40;38.30;;;;;;5086991;28;20177;-60
2022/07/31 12:41:55;;;;;;;3.07;2.20;;;27.40;38.00;;;;;;5082815;28;20569;-60
2022/07/31 12:44:21;;;;;;;2.33;2.13;;;27.70;39.50;;;;;;5084282;28;20169;-62
2022/07/31 12:46:47;;;;;;;2.00;1.90;;;28.10;38.40;;;;;;5085431;28;20177;-62
2022/07/31 12:49:13;;;;;;;3.80;2.10;;;28.20;37.70;;;;;;5079836;28;20656;-59
2022/07/31 12:51:39;;;;;;;2.80;2.10;;;28.20;37.70;;;;;;5068247;28;20288;-62